Time;durP1;ratioP1;P1;durP2;ratioP2;P2;SDS_P1;SDS_P2;PMS_P1;PMS_P2;Temp;Humidity;BMP_temperature;BMP_pressure;BME280_temperature;BME280_humidity;BME280_pressure;Samples;Min_cycle;Max_cycle;Signal;HPM_P1;HPM_P2
2022/07/16 00:02:28;;;;;;;5.40;1.00;;;20.00;99.90;;;;;;4145043;28;20072;-82
2022/07/16 00:04:49;;;;;;;3.35;0.60;;;20.00;99.90;;;;;;4154949;28;20121;-82
2022/07/16 00:07:10;;;;;;;0.80;0.80;;;19.80;99.90;;;;;;4146893;28;20100;-83
2022/07/16 00:09:30;;;;;;;0.60;0.60;;;19.80;99.90;;;;;;4161725;28;20119;-82
2022/07/16 00:11:51;;;;;;;0.88;0.70;;;19.80;99.90;;;;;;4171013;28;20059;-83
2022/07/16 00:14:11;;;;;;;1.50;0.60;;;19.90;99.90;;;;;;4169248;28;20044;-83
2022/07/16 00:16:32;;;;;;;1.30;0.70;;;19.90;99.90;;;;;;4161168;28;20056;-82
2022/07/16 00:21:32;;;;;;;1.50;0.70;;;19.70;99.90;;;;;;4161031;28;20052;-82
2022/07/16 00:23:53;;;;;;;0.95;0.70;;;19.70;99.90;;;;;;4160950;28;20068;-83
2022/07/16 00:26:14;;;;;;;0.68;0.68;;;19.80;99.90;;;;;;4160815;28;20099;-83
2022/07/16 00:28:34;;;;;;;0.77;0.77;;;19.80;99.90;;;;;;4161391;28;20753;-83
2022/07/16 00:30:55;;;;;;;0.85;0.80;;;19.70;99.90;;;;;;4161044;28;20107;-82
2022/07/16 00:33:15;;;;;;;1.48;0.65;;;19.70;99.90;;;;;;4161184;28;20156;-83
2022/07/16 00:35:36;;;;;;;0.70;0.70;;;19.50;99.90;;;;;;4160936;28;20523;-83
2022/07/16 00:37:56;;;;;;;1.55;0.70;;;19.70;99.90;;;;;;4160839;28;20417;-82
2022/07/16 00:40:17;;;;;;;0.70;0.70;;;19.50;99.90;;;;;;4160720;28;20051;-82
2022/07/16 00:42:38;;;;;;;0.80;0.80;;;19.40;99.90;;;;;;4158900;28;20060;-82
2022/07/16 00:44:58;;;;;;;0.73;0.73;;;19.40;99.90;;;;;;4146302;28;20056;-83
2022/07/16 00:47:19;;;;;;;2.17;0.70;;;18.90;99.90;;;;;;4145225;28;20076;-83
2022/07/16 00:49:39;;;;;;;0.80;0.80;;;19.20;99.90;;;;;;4141346;28;20045;-83
2022/07/16 00:52:00;;;;;;;0.70;0.70;;;19.20;99.90;;;;;;4160695;28;20096;-82
2022/07/16 00:54:21;;;;;;;0.85;0.85;;;19.00;99.90;;;;;;4146064;28;20053;-82
2022/07/16 00:56:42;;;;;;;0.65;0.65;;;19.10;99.90;;;;;;4130012;28;20505;-82
2022/07/16 00:59:03;;;;;;;0.90;0.90;;;19.10;99.90;;;;;;4153547;28;20166;-83
2022/07/16 01:01:24;;;;;;;0.77;0.77;;;19.00;99.90;;;;;;4160591;28;20060;-82
2022/07/16 01:03:45;;;;;;;0.80;0.80;;;18.90;99.90;;;;;;4161019;28;20522;-83
2022/07/16 01:06:07;;;;;;;0.80;0.70;;;18.60;99.90;;;;;;4160313;28;20125;-82
2022/07/16 01:08:28;;;;;;;0.82;0.80;;;18.50;99.90;;;;;;4160570;28;20460;-82
2022/07/16 01:10:49;;;;;;;0.73;0.70;;;18.60;99.90;;;;;;4146677;28;20060;-82
2022/07/16 01:13:11;;;;;;;0.90;0.90;;;18.40;99.90;;;;;;4162094;28;20060;-82
2022/07/16 01:15:31;;;;;;;0.80;0.80;;;18.30;99.90;;;;;;4162965;28;20156;-82
2022/07/16 01:17:53;;;;;;;0.77;0.77;;;18.30;99.90;;;;;;4160306;28;20045;-83
2022/07/16 01:20:14;;;;;;;3.60;0.80;;;18.20;99.90;;;;;;4160921;28;20104;-82
2022/07/16 01:22:34;;;;;;;0.77;0.77;;;18.30;99.90;;;;;;4145544;28;20116;-82
2022/07/16 01:24:55;;;;;;;0.80;0.80;;;18.30;99.90;;;;;;4160765;28;20141;-82
2022/07/16 01:27:17;;;;;;;1.00;1.00;;;18.20;99.90;;;;;;4160326;28;20044;-83
2022/07/16 01:29:38;;;;;;;0.75;0.75;;;18.20;99.90;;;;;;4160806;28;20100;-83
2022/07/16 01:31:59;;;;;;;0.85;0.85;;;18.10;99.90;;;;;;4144352;28;20592;-82
2022/07/16 01:34:26;;;;;;;0.80;0.80;;;18.10;99.90;;;;;;4140892;28;20705;-81
2022/07/16 01:37:02;;;;;;;0.80;0.80;;;18.20;99.90;;;;;;4160146;28;20055;-82
2022/07/16 01:39:23;;;;;;;0.80;0.80;;;18.00;99.90;;;;;;4160728;28;20065;-82
2022/07/16 01:41:58;;;;;;;0.90;0.90;;;18.10;99.90;;;;;;4160408;28;20061;-83
2022/07/16 01:44:19;;;;;;;1.40;0.90;;;18.10;99.90;;;;;;4160355;28;20060;-83
2022/07/16 01:46:40;;;;;;;0.90;0.90;;;18.00;99.90;;;;;;4160351;28;20056;-82
2022/07/16 01:49:00;;;;;;;5.35;1.30;;;17.90;99.90;;;;;;4145597;28;20052;-82
2022/07/16 01:51:21;;;;;;;0.88;0.88;;;17.80;99.90;;;;;;4143974;28;20169;-83
2022/07/16 01:53:42;;;;;;;2.88;0.77;;;17.90;99.90;;;;;;4159297;28;20049;-82
2022/07/16 01:56:02;;;;;;;0.90;0.90;;;17.90;99.90;;;;;;4148561;28;20110;-82
2022/07/16 01:58:28;;;;;;;0.95;0.80;;;17.60;99.90;;;;;;4149478;28;20049;-82
2022/07/16 02:00:49;;;;;;;0.80;0.80;;;17.70;99.90;;;;;;4148789;28;20101;-81
2022/07/16 02:03:12;;;;;;;0.85;0.80;;;17.60;99.90;;;;;;4163127;28;20571;-82
2022/07/16 02:05:33;;;;;;;0.80;0.80;;;17.80;99.90;;;;;;4148692;28;20041;-82
2022/07/16 02:07:54;;;;;;;0.80;0.80;;;17.60;99.90;;;;;;4163469;28;20048;-82
2022/07/16 02:10:15;;;;;;;0.73;0.73;;;17.50;99.90;;;;;;4132283;28;20617;-82
2022/07/16 02:12:36;;;;;;;0.70;0.70;;;17.40;99.90;;;;;;4166692;28;20052;-82
2022/07/16 02:14:57;;;;;;;0.82;0.82;;;17.60;99.90;;;;;;4163435;28;20762;-82
2022/07/16 02:17:17;;;;;;;0.75;0.75;;;17.60;99.90;;;;;;4147786;28;20072;-83
2022/07/16 02:19:39;;;;;;;0.90;0.90;;;17.60;99.90;;;;;;4146833;28;20052;-82
2022/07/16 02:22:01;;;;;;;0.80;0.80;;;17.60;99.90;;;;;;4156601;28;20101;-83
2022/07/16 02:24:23;;;;;;;1.50;1.20;;;17.40;99.90;;;;;;4163293;28;20457;-83
2022/07/16 02:26:43;;;;;;;3.45;0.80;;;17.30;99.90;;;;;;4163423;28;20068;-82
2022/07/16 02:29:04;;;;;;;0.90;0.90;;;17.20;99.90;;;;;;4163190;28;20064;-82
2022/07/16 02:31:32;;;;;;;1.27;1.27;;;17.10;99.90;;;;;;4162923;28;20048;-83
2022/07/16 02:33:52;;;;;;;0.90;0.90;;;17.10;99.90;;;;;;4147821;28;20061;-82
2022/07/16 02:36:13;;;;;;;0.90;0.90;;;17.10;99.90;;;;;;4148298;28;20060;-81
2022/07/16 02:38:34;;;;;;;1.58;0.90;;;17.20;99.90;;;;;;4162846;28;20052;-83
2022/07/16 02:40:54;;;;;;;0.80;0.80;;;17.10;99.90;;;;;;4148432;28;20061;-82
2022/07/16 02:43:15;;;;;;;0.90;0.90;;;17.20;99.90;;;;;;4162600;28;20416;-82
2022/07/16 02:45:37;;;;;;;1.00;0.90;;;16.90;99.90;;;;;;4147939;28;20102;-82
2022/07/16 02:47:57;;;;;;;1.13;1.00;;;17.10;99.90;;;;;;4162627;28;20056;-82
2022/07/16 02:50:19;;;;;;;0.95;0.80;;;16.90;99.90;;;;;;4147705;28;20100;-82
2022/07/16 02:52:39;;;;;;;0.90;0.90;;;16.90;99.90;;;;;;4147346;28;20049;-83
2022/07/16 02:55:00;;;;;;;0.90;0.90;;;17.00;99.90;;;;;;4162718;28;20055;-82
2022/07/16 02:57:20;;;;;;;1.20;1.10;;;17.10;99.90;;;;;;4148121;28;20057;-82
2022/07/16 02:59:41;;;;;;;1.60;0.80;;;17.20;99.90;;;;;;4162826;28;20652;-83
2022/07/16 03:02:02;;;;;;;0.98;0.98;;;17.00;99.90;;;;;;4162367;28;20103;-82
2022/07/16 03:04:22;;;;;;;0.80;0.80;;;17.00;99.90;;;;;;4131426;28;20061;-82
2022/07/16 03:06:43;;;;;;;0.80;0.80;;;16.90;99.90;;;;;;4141799;28;20073;-82
2022/07/16 03:09:03;;;;;;;0.90;0.90;;;16.90;99.90;;;;;;4147803;28;20209;-82
2022/07/16 03:11:24;;;;;;;1.73;0.80;;;16.80;99.90;;;;;;4168916;28;20055;-83
2022/07/16 03:13:44;;;;;;;0.98;0.80;;;16.80;99.90;;;;;;4163165;28;20088;-81
2022/07/16 03:16:05;;;;;;;0.90;0.90;;;16.70;99.90;;;;;;4162605;28;20060;-82
2022/07/16 03:18:26;;;;;;;1.42;0.90;;;16.60;99.90;;;;;;4170128;28;20125;-82
2022/07/16 03:20:47;;;;;;;0.90;0.90;;;16.70;99.90;;;;;;4162457;28;20456;-82
2022/07/16 03:23:08;;;;;;;0.80;0.80;;;16.90;99.90;;;;;;4147460;28;20060;-82
2022/07/16 03:25:29;;;;;;;0.82;0.82;;;16.80;99.90;;;;;;4147339;28;20729;-82
2022/07/16 03:27:50;;;;;;;0.80;0.80;;;16.90;99.90;;;;;;4147054;28;20227;-81
2022/07/16 03:30:12;;;;;;;0.90;0.90;;;16.90;99.90;;;;;;4147846;28;20064;-82
2022/07/16 03:32:32;;;;;;;0.98;0.90;;;16.90;99.90;;;;;;4146863;28;20052;-81
2022/07/16 03:34:53;;;;;;;0.80;0.80;;;16.80;99.90;;;;;;4147376;28;20527;-82
2022/07/16 03:37:14;;;;;;;0.93;0.93;;;16.70;99.90;;;;;;4161838;28;20095;-82
2022/07/16 03:39:34;;;;;;;1.05;0.90;;;16.50;99.90;;;;;;4144002;28;20134;-82
2022/07/16 03:41:55;;;;;;;1.20;1.00;;;16.40;99.90;;;;;;4147014;28;20088;-82
2022/07/16 03:44:16;;;;;;;1.00;1.00;;;16.40;99.90;;;;;;4161952;28;20076;-81
2022/07/16 03:46:37;;;;;;;1.10;1.10;;;16.50;99.90;;;;;;4162325;28;20052;-82
2022/07/16 03:48:59;;;;;;;1.45;1.02;;;16.50;99.90;;;;;;4145516;28;20048;-82
2022/07/16 03:51:19;;;;;;;1.60;0.93;;;16.50;99.90;;;;;;4155383;28;20473;-82
2022/07/16 03:53:40;;;;;;;1.05;0.80;;;16.70;99.90;;;;;;4161600;28;20049;-83
2022/07/16 03:56:01;;;;;;;1.77;0.80;;;16.70;99.90;;;;;;4161877;28;20421;-82
2022/07/16 03:58:21;;;;;;;0.90;0.90;;;16.60;99.90;;;;;;4146693;28;20057;-82
2022/07/16 04:00:42;;;;;;;1.05;0.90;;;16.60;99.90;;;;;;4147140;28;20049;-82
2022/07/16 04:03:03;;;;;;;1.25;1.15;;;16.40;99.90;;;;;;4161511;28;20060;-82
2022/07/16 04:05:24;;;;;;;0.98;0.98;;;16.40;99.90;;;;;;4146873;28;20056;-82
2022/07/16 04:07:46;;;;;;;1.17;0.90;;;16.30;99.90;;;;;;4161515;28;20080;-82
2022/07/16 04:10:12;;;;;;;1.10;1.00;;;16.20;99.90;;;;;;4147374;28;20575;-82
2022/07/16 04:12:33;;;;;;;0.90;0.90;;;16.10;99.90;;;;;;4175547;28;20060;-82
2022/07/16 04:14:53;;;;;;;1.42;1.00;;;16.00;99.90;;;;;;4161546;28;20073;-82
2022/07/16 04:17:14;;;;;;;1.00;1.00;;;16.00;99.90;;;;;;4145642;28;20513;-83
2022/07/16 04:19:35;;;;;;;1.35;0.90;;;16.00;99.90;;;;;;4161510;28;20052;-82
2022/07/16 04:21:55;;;;;;;0.95;0.95;;;16.10;99.90;;;;;;4161539;28;20882;-82
2022/07/16 04:24:16;;;;;;;0.90;0.90;;;16.10;99.90;;;;;;4130502;28;20081;-82
2022/07/16 04:26:36;;;;;;;3.80;1.10;;;16.10;99.90;;;;;;4141762;28;20540;-82
2022/07/16 04:28:57;;;;;;;2.47;0.90;;;16.00;99.90;;;;;;4161307;28;20094;-82
2022/07/16 04:31:18;;;;;;;0.98;0.98;;;15.90;99.90;;;;;;4146450;28;20049;-82
2022/07/16 04:33:39;;;;;;;0.90;0.90;;;16.10;99.90;;;;;;4144844;28;20049;-82
2022/07/16 04:35:59;;;;;;;1.15;1.15;;;16.40;99.90;;;;;;4139993;28;20053;-83
2022/07/16 04:38:20;;;;;;;0.82;0.80;;;16.40;99.90;;;;;;4161217;28;20040;-83
2022/07/16 04:40:41;;;;;;;2.97;0.90;;;16.40;99.90;;;;;;4161463;28;20559;-82
2022/07/16 04:43:02;;;;;;;0.93;0.93;;;16.50;99.90;;;;;;4160960;28;20408;-82
2022/07/16 04:45:23;;;;;;;1.25;1.25;;;16.40;99.90;;;;;;4160984;28;20107;-82
2022/07/16 04:47:44;;;;;;;1.73;0.90;;;16.50;99.90;;;;;;4143903;28;20100;-82
2022/07/16 04:50:05;;;;;;;0.98;0.98;;;16.60;99.90;;;;;;4145824;28;20060;-84
2022/07/16 04:52:27;;;;;;;1.10;1.00;;;16.60;99.90;;;;;;4145904;28;20898;-83
2022/07/16 04:54:47;;;;;;;1.30;0.90;;;16.80;99.90;;;;;;4161060;28;20068;-84
2022/07/16 04:57:08;;;;;;;1.08;0.80;;;16.70;99.90;;;;;;4146262;28;20543;-83
2022/07/16 04:59:28;;;;;;;1.85;0.95;;;16.90;99.90;;;;;;4161051;28;20119;-83
2022/07/16 05:01:49;;;;;;;2.25;0.90;;;16.80;99.90;;;;;;4160907;28;20052;-83
2022/07/16 05:04:10;;;;;;;0.80;0.80;;;16.80;99.90;;;;;;4160842;28;20056;-83
2022/07/16 05:06:31;;;;;;;0.90;0.90;;;16.80;99.90;;;;;;4155006;28;20088;-82
2022/07/16 05:08:51;;;;;;;0.82;0.82;;;16.70;99.90;;;;;;4146231;28;20056;-83
2022/07/16 05:11:12;;;;;;;3.72;0.90;;;16.80;99.90;;;;;;4160219;28;20048;-82
2022/07/16 05:13:33;;;;;;;0.90;0.90;;;16.70;99.90;;;;;;4160374;28;20088;-83
2022/07/16 05:15:54;;;;;;;1.60;0.90;;;16.80;99.90;;;;;;4160722;28;20099;-83
2022/07/16 05:18:14;;;;;;;0.90;0.90;;;16.90;99.90;;;;;;4141306;28;20045;-83
2022/07/16 05:20:35;;;;;;;2.05;1.00;;;16.90;99.90;;;;;;4160604;28;20127;-83
2022/07/16 05:22:57;;;;;;;0.90;0.90;;;17.00;99.90;;;;;;4145738;28;20698;-82
2022/07/16 05:25:18;;;;;;;0.80;0.80;;;17.10;99.90;;;;;;4145852;28;20085;-82
2022/07/16 05:27:39;;;;;;;1.75;1.00;;;17.20;99.90;;;;;;4160871;28;20626;-83
2022/07/16 05:29:59;;;;;;;2.40;1.17;;;17.20;99.90;;;;;;4164042;28;20589;-83
2022/07/16 05:32:20;;;;;;;1.55;0.90;;;17.10;99.90;;;;;;4163882;28;20472;-82
2022/07/16 05:34:41;;;;;;;0.95;0.95;;;17.20;99.90;;;;;;4149208;28;20097;-83
2022/07/16 05:37:01;;;;;;;1.10;1.00;;;17.40;99.90;;;;;;4149173;28;20052;-83
2022/07/16 05:39:24;;;;;;;1.00;1.00;;;17.40;99.90;;;;;;4163480;28;20115;-83
2022/07/16 05:41:45;;;;;;;1.98;0.90;;;17.40;99.90;;;;;;4164257;28;20130;-83
2022/07/16 05:44:05;;;;;;;0.98;0.90;;;17.50;99.90;;;;;;4149140;28;20147;-82
2022/07/16 05:46:26;;;;;;;1.40;1.30;;;17.50;99.90;;;;;;4149065;28;20125;-83
2022/07/16 05:48:47;;;;;;;2.05;1.20;;;17.60;99.90;;;;;;4163895;28;20052;-83
2022/07/16 05:51:08;;;;;;;0.90;0.90;;;17.70;99.90;;;;;;4148876;28;20060;-82
2022/07/16 05:53:29;;;;;;;1.73;0.98;;;18.00;99.90;;;;;;4148762;28;20048;-83
2022/07/16 05:55:50;;;;;;;0.93;0.93;;;18.10;99.90;;;;;;4163910;28;20103;-84
2022/07/16 05:58:10;;;;;;;1.35;1.00;;;18.10;99.90;;;;;;4163720;28;20057;-84
2022/07/16 06:00:31;;;;;;;6.25;1.40;;;18.10;99.90;;;;;;4162539;28;20413;-85
2022/07/16 06:02:52;;;;;;;0.75;0.75;;;18.20;99.90;;;;;;4154541;28;20115;-85
2022/07/16 06:05:13;;;;;;;1.13;1.13;;;18.50;99.90;;;;;;4163659;28;20056;-84
2022/07/16 06:07:34;;;;;;;0.90;0.90;;;18.80;99.90;;;;;;4162243;28;20092;-84
2022/07/16 06:09:54;;;;;;;0.80;0.80;;;19.10;99.90;;;;;;4148948;28;20582;-85
2022/07/16 06:12:15;;;;;;;2.15;0.80;;;19.10;99.90;;;;;;4176417;28;20051;-84
2022/07/16 06:14:36;;;;;;;0.85;0.77;;;19.40;99.90;;;;;;4180360;28;20092;-84
2022/07/16 06:16:56;;;;;;;0.77;0.77;;;19.40;99.90;;;;;;4163386;28;20052;-85
2022/07/16 06:19:17;;;;;;;0.90;0.90;;;19.70;99.90;;;;;;4148514;28;20732;-84
2022/07/16 06:21:38;;;;;;;0.93;0.80;;;20.00;99.90;;;;;;4148151;28;20061;-79
2022/07/16 06:23:58;;;;;;;1.65;0.80;;;20.40;99.90;;;;;;4162660;28;20067;-79
2022/07/16 06:26:19;;;;;;;0.95;0.70;;;20.80;99.90;;;;;;4148238;28;20057;-79
2022/07/16 06:28:40;;;;;;;0.70;0.70;;;21.20;99.90;;;;;;4148284;28;20644;-79
2022/07/16 06:31:01;;;;;;;1.00;0.70;;;21.40;99.90;;;;;;4148820;28;20096;-78
2022/07/16 06:33:22;;;;;;;0.70;0.70;;;21.60;99.90;;;;;;4162860;28;20416;-79
2022/07/16 06:35:43;;;;;;;2.08;0.70;;;22.00;99.90;;;;;;4163259;28;20044;-79
2022/07/16 06:38:04;;;;;;;0.80;0.68;;;22.40;99.90;;;;;;4145133;28;20049;-79
2022/07/16 06:40:24;;;;;;;1.00;0.90;;;22.90;99.90;;;;;;4139630;28;20464;-79
2022/07/16 06:42:45;;;;;;;0.63;0.63;;;23.20;99.90;;;;;;4148406;28;20057;-79
2022/07/16 06:45:06;;;;;;;0.60;0.60;;;23.60;99.90;;;;;;4138979;28;20724;-79
2022/07/16 06:47:26;;;;;;;0.60;0.60;;;23.80;99.90;;;;;;4144774;28;20090;-79
2022/07/16 06:49:47;;;;;;;0.60;0.60;;;24.10;99.90;;;;;;4161217;28;20111;-79
2022/07/16 06:52:08;;;;;;;1.60;0.57;;;24.30;99.90;;;;;;4141242;28;20075;-79
2022/07/16 06:54:28;;;;;;;0.50;0.50;;;24.50;99.90;;;;;;4160253;28;20047;-79
2022/07/16 06:56:49;;;;;;;0.50;0.50;;;24.60;99.90;;;;;;4162596;28;20056;-79
2022/07/16 06:59:10;;;;;;;1.55;0.50;;;24.80;98.80;;;;;;4131479;28;20453;-79
2022/07/16 07:01:31;;;;;;;0.50;0.50;;;25.20;98.80;;;;;;4155530;28;20080;-79
2022/07/16 07:03:51;;;;;;;0.50;0.50;;;25.20;98.20;;;;;;4163496;28;20052;-80
2022/07/16 07:06:13;;;;;;;0.50;0.50;;;25.60;98.70;;;;;;4162577;28;20047;-79
2022/07/16 07:08:34;;;;;;;1.75;0.50;;;26.10;98.60;;;;;;4162612;28;20060;-79
2022/07/16 07:10:55;;;;;;;1.38;0.50;;;26.30;97.80;;;;;;4153878;28;20151;-79
2022/07/16 07:13:15;;;;;;;1.70;0.70;;;26.20;96.80;;;;;;4167976;28;20586;-79
2022/07/16 07:15:36;;;;;;;1.08;0.50;;;26.40;97.20;;;;;;4146009;28;20116;-79
2022/07/16 07:17:56;;;;;;;0.65;0.55;;;26.80;96.70;;;;;;4153647;28;20057;-80
2022/07/16 07:20:17;;;;;;;0.50;0.50;;;27.20;96.80;;;;;;4147333;28;20116;-79
2022/07/16 07:22:43;;;;;;;2.75;0.40;;;27.30;95.30;;;;;;4162182;28;20061;-80
2022/07/16 07:25:04;;;;;;;1.42;0.50;;;27.10;95.30;;;;;;4147791;28;20060;-79
2022/07/16 07:27:25;;;;;;;0.45;0.43;;;27.40;95.10;;;;;;4147237;28;20105;-79
2022/07/16 07:29:46;;;;;;;2.33;0.50;;;27.40;94.80;;;;;;4162157;28;20064;-79
2022/07/16 07:32:07;;;;;;;0.82;0.82;;;27.50;93.80;;;;;;4147133;28;20080;-79
2022/07/16 07:34:27;;;;;;;0.40;0.40;;;27.70;94.90;;;;;;4131114;28;20052;-79
2022/07/16 07:36:48;;;;;;;1.13;0.50;;;28.20;95.10;;;;;;4158801;28;20133;-80
2022/07/16 07:39:08;;;;;;;0.40;0.40;;;28.50;94.30;;;;;;4161854;28;20048;-79
2022/07/16 07:41:29;;;;;;;0.43;0.43;;;28.60;93.90;;;;;;4161945;28;20099;-79
2022/07/16 07:43:50;;;;;;;1.42;0.50;;;28.90;92.90;;;;;;4139715;28;20178;-79
2022/07/16 07:46:11;;;;;;;0.65;0.40;;;29.30;93.00;;;;;;4147052;28;20065;-79
2022/07/16 07:48:32;;;;;;;0.82;0.43;;;29.10;93.70;;;;;;4161645;28;20194;-79
2022/07/16 07:50:52;;;;;;;0.40;0.40;;;29.10;91.70;;;;;;4160078;28;20060;-79
2022/07/16 07:53:13;;;;;;;1.38;0.50;;;29.20;92.40;;;;;;4146976;28;20516;-79
2022/07/16 07:55:34;;;;;;;1.65;0.40;;;29.50;92.50;;;;;;4161795;28;20099;-79
2022/07/16 07:57:55;;;;;;;0.50;0.50;;;29.80;91.60;;;;;;4161557;28;20095;-79
2022/07/16 08:00:15;;;;;;;1.10;0.68;;;30.10;92.20;;;;;;4146828;28;20108;-79
2022/07/16 08:02:37;;;;;;;0.60;0.40;;;30.00;91.30;;;;;;4161415;28;20131;-79
2022/07/16 08:04:57;;;;;;;1.05;0.40;;;29.50;91.80;;;;;;4161927;28;20107;-79
2022/07/16 08:07:18;;;;;;;0.47;0.47;;;29.30;91.70;;;;;;4146586;28;20084;-79
2022/07/16 08:09:39;;;;;;;0.40;0.40;;;29.30;92.80;;;;;;4130592;28;20061;-79
2022/07/16 08:12:00;;;;;;;0.40;0.40;;;29.60;92.10;;;;;;4168035;28;20079;-79
2022/07/16 08:14:21;;;;;;;0.35;0.35;;;30.00;91.30;;;;;;4172605;28;20048;-79
2022/07/16 08:16:46;;;;;;;0.50;0.50;;;30.00;91.20;;;;;;4147248;28;20071;-79
2022/07/16 08:19:07;;;;;;;2.75;0.38;;;29.80;91.20;;;;;;4161282;28;20106;-79
2022/07/16 08:21:28;;;;;;;0.40;0.40;;;30.10;90.40;;;;;;4161406;28;20416;-79
2022/07/16 08:26:34;;;;;;;1.40;0.40;;;30.80;91.00;;;;;;4161184;28;20103;-79
2022/07/16 08:28:54;;;;;;;0.60;0.30;;;30.40;90.50;;;;;;4161189;28;20128;-79
2022/07/16 08:31:15;;;;;;;0.80;0.40;;;30.80;90.00;;;;;;4161273;28;20536;-79
2022/07/16 08:33:44;;;;;;;0.30;0.30;;;31.00;88.40;;;;;;4160983;28;20552;-79
2022/07/16 08:36:04;;;;;;;1.10;0.30;;;30.80;89.60;;;;;;4161122;28;20056;-79
2022/07/16 08:38:25;;;;;;;0.65;0.40;;;30.70;87.30;;;;;;4146370;28;20060;-79
2022/07/16 08:40:50;;;;;;;0.30;0.30;;;31.00;87.10;;;;;;4160760;28;20115;-79
2022/07/16 08:43:13;;;;;;;0.38;0.38;;;30.90;86.00;;;;;;4160943;28;20485;-79
2022/07/16 08:45:33;;;;;;;1.45;0.30;;;30.80;85.00;;;;;;4161091;28;20095;-79
2022/07/16 08:47:53;;;;;;;1.48;0.30;;;30.60;85.90;;;;;;4144350;28;20057;-79
2022/07/16 08:50:15;;;;;;;0.30;0.30;;;30.70;84.70;;;;;;4156144;28;20055;-79
2022/07/16 08:52:39;;;;;;;1.23;0.40;;;31.10;85.10;;;;;;4146067;28;20048;-79
2022/07/16 08:55:01;;;;;;;0.65;0.40;;;31.10;83.80;;;;;;4160817;28;20052;-79
2022/07/16 08:57:22;;;;;;;0.30;0.30;;;31.40;82.80;;;;;;4161189;28;20123;-79
2022/07/16 08:59:43;;;;;;;0.30;0.30;;;31.40;83.30;;;;;;4146050;28;20125;-79
2022/07/16 09:02:03;;;;;;;2.25;0.40;;;31.80;82.60;;;;;;4160446;28;20142;-79
2022/07/16 09:04:28;;;;;;;0.40;0.40;;;32.00;81.00;;;;;;4160684;28;20060;-79
2022/07/16 09:06:49;;;;;;;0.30;0.30;;;31.60;80.10;;;;;;4144661;28;20057;-79
2022/07/16 09:09:10;;;;;;;0.30;0.30;;;31.60;82.40;;;;;;4154079;28;20517;-79
2022/07/16 09:11:33;;;;;;;0.30;0.30;;;31.60;82.00;;;;;;4164136;28;20052;-79
2022/07/16 09:14:04;;;;;;;0.30;0.30;;;32.00;80.70;;;;;;4145473;28;20052;-79
2022/07/16 09:16:39;;;;;;;0.20;0.20;;;32.40;77.50;;;;;;4129899;28;20140;-79
2022/07/16 09:19:02;;;;;;;1.80;0.30;;;32.30;76.70;;;;;;4141212;28;20105;-78
2022/07/16 09:21:22;;;;;;;0.30;0.30;;;32.10;77.10;;;;;;4160413;28;20084;-78
2022/07/16 09:23:43;;;;;;;0.30;0.30;;;32.50;77.50;;;;;;4160421;28;20126;-79
2022/07/16 09:26:09;;;;;;;1.33;0.30;;;32.60;73.30;;;;;;4144334;28;20053;-79
2022/07/16 09:28:46;;;;;;;0.30;0.30;;;32.30;73.90;;;;;;4154305;28;20099;-79
2022/07/16 09:31:08;;;;;;;0.32;0.30;;;32.40;74.30;;;;;;4139904;28;20057;-79
2022/07/16 09:33:28;;;;;;;0.30;0.30;;;32.30;74.50;;;;;;4172302;28;20124;-79
2022/07/16 09:36:14;;;;;;;0.68;0.30;;;32.80;77.60;;;;;;4168229;28;20052;-79
2022/07/16 09:38:52;;;;;;;0.65;0.38;;;33.20;76.80;;;;;;4166846;28;20106;-79
2022/07/16 09:41:14;;;;;;;0.40;0.30;;;33.10;75.30;;;;;;4140961;28;20124;-79
2022/07/16 09:43:41;;;;;;;0.30;0.30;;;32.70;73.20;;;;;;4149771;28;20044;-79
2022/07/16 09:46:03;;;;;;;0.30;0.30;;;32.90;77.50;;;;;;4160570;28;20425;-79
2022/07/16 09:48:29;;;;;;;1.85;0.30;;;33.10;73.70;;;;;;4145908;28;20124;-80
2022/07/16 09:50:51;;;;;;;0.30;0.30;;;33.00;73.00;;;;;;4159131;28;20049;-79
2022/07/16 09:53:21;;;;;;;5.47;0.43;;;32.70;75.70;;;;;;4145001;28;20096;-80
2022/07/16 09:56:02;;;;;;;1.20;0.30;;;33.00;75.70;;;;;;4158649;28;20096;-81
2022/07/16 09:58:23;;;;;;;2.28;0.30;;;33.40;74.10;;;;;;4157362;28;20044;-82
2022/07/16 10:00:43;;;;;;;0.40;0.30;;;33.70;73.20;;;;;;4143456;28;20077;-82
2022/07/16 10:03:04;;;;;;;0.30;0.30;;;33.90;76.80;;;;;;4143459;28;20061;-82
2022/07/16 10:05:26;;;;;;;0.30;0.30;;;34.10;74.30;;;;;;4148328;28;20545;-82
2022/07/16 10:07:51;;;;;;;0.30;0.30;;;34.10;74.10;;;;;;4166787;28;20065;-81
2022/07/16 10:10:12;;;;;;;0.30;0.30;;;34.00;75.60;;;;;;4159199;28;20331;-82
2022/07/16 10:12:33;;;;;;;0.30;0.30;;;33.70;72.60;;;;;;4159043;28;20059;-81
2022/07/16 10:14:54;;;;;;;0.75;0.40;;;33.70;73.10;;;;;;4157244;28;20557;-81
2022/07/16 10:17:22;;;;;;;0.30;0.30;;;33.00;73.30;;;;;;4159180;28;20052;-82
2022/07/16 10:19:44;;;;;;;1.27;0.30;;;33.40;75.80;;;;;;4167123;28;20124;-82
2022/07/16 10:22:15;;;;;;;0.38;0.38;;;33.90;74.10;;;;;;4154184;28;20053;-81
2022/07/16 10:24:45;;;;;;;0.30;0.30;;;33.30;72.30;;;;;;4149317;28;20127;-81
2022/07/16 10:27:19;;;;;;;1.65;0.30;;;33.70;72.10;;;;;;4161997;28;20060;-81
2022/07/16 10:29:43;;;;;;;0.40;0.30;;;33.70;74.00;;;;;;4149037;28;20101;-81
2022/07/16 10:34:43;;;;;;;0.90;0.30;;;34.00;75.00;;;;;;4164850;28;20139;-82
2022/07/16 10:37:09;;;;;;;0.40;0.40;;;34.00;73.00;;;;;;4149973;28;20125;-81
2022/07/16 10:39:30;;;;;;;0.30;0.30;;;34.30;72.00;;;;;;4157166;28;20052;-81
2022/07/16 10:41:56;;;;;;;0.90;0.30;;;34.50;72.80;;;;;;4151152;28;20136;-82
2022/07/16 10:44:18;;;;;;;0.30;0.30;;;34.80;70.70;;;;;;4147586;28;20604;-81
2022/07/16 10:46:58;;;;;;;1.33;0.30;;;34.80;71.30;;;;;;4146287;28;20080;-82
2022/07/16 10:49:20;;;;;;;0.22;0.22;;;34.80;71.80;;;;;;4158588;28;20571;-81
2022/07/16 10:52:03;;;;;;;0.75;0.30;;;34.80;72.10;;;;;;4134000;28;20112;-82
2022/07/16 10:54:28;;;;;;;0.30;0.30;;;35.50;73.10;;;;;;4156073;28;20056;-81
2022/07/16 10:56:51;;;;;;;0.30;0.30;;;35.20;69.10;;;;;;4145000;28;20076;-82
2022/07/16 10:59:16;;;;;;;0.63;0.30;;;35.10;73.30;;;;;;4145615;28;20733;-82
2022/07/16 11:01:39;;;;;;;0.40;0.30;;;35.10;70.90;;;;;;4146076;28;20108;-82
2022/07/16 11:03:59;;;;;;;0.30;0.30;;;34.90;71.10;;;;;;4156061;28;20103;-82
2022/07/16 11:06:22;;;;;;;0.57;0.30;;;35.30;68.20;;;;;;4162107;28;20107;-82
2022/07/16 11:08:43;;;;;;;0.30;0.30;;;35.80;71.10;;;;;;4162592;28;20056;-82
2022/07/16 11:11:05;;;;;;;0.63;0.30;;;36.10;69.30;;;;;;4147377;28;20060;-87
2022/07/16 11:13:28;;;;;;;0.30;0.30;;;35.80;67.20;;;;;;4162658;28;20144;-86
2022/07/16 11:15:51;;;;;;;4.30;0.30;;;35.80;69.80;;;;;;4162355;28;20053;-87
2022/07/16 11:18:18;;;;;;;1.88;0.28;;;36.30;71.70;;;;;;4161257;28;20409;-86
2022/07/16 11:20:39;;;;;;;0.25;0.25;;;35.90;71.20;;;;;;4146993;28;20112;-86
2022/07/16 11:23:10;;;;;;;0.73;0.38;;;35.60;70.20;;;;;;4162416;28;20099;-86
2022/07/16 11:25:30;;;;;;;0.85;0.30;;;35.40;69.90;;;;;;4148124;28;20049;-86
2022/07/16 11:27:59;;;;;;;1.42;0.30;;;34.80;68.40;;;;;;4147765;28;20056;-86
2022/07/16 11:30:19;;;;;;;0.30;0.30;;;34.60;72.70;;;;;;4153826;28;20057;-86
2022/07/16 11:32:47;;;;;;;0.32;0.30;;;35.10;73.40;;;;;;4158290;28;20053;-86
2022/07/16 11:35:10;;;;;;;0.30;0.30;;;34.60;71.60;;;;;;4162489;28;20107;-87
2022/07/16 11:37:49;;;;;;;0.30;0.30;;;35.20;70.30;;;;;;4157362;28;20047;-87
2022/07/16 11:40:19;;;;;;;0.73;0.30;;;35.40;66.60;;;;;;4132717;28;20100;-87
2022/07/16 11:42:40;;;;;;;0.57;0.30;;;35.80;67.20;;;;;;4159313;28;20057;-87
2022/07/16 11:45:04;;;;;;;0.30;0.30;;;35.50;68.70;;;;;;4137571;28;20137;-87
2022/07/16 11:47:25;;;;;;;0.30;0.30;;;35.70;69.30;;;;;;4162557;28;20053;-87
2022/07/16 11:49:49;;;;;;;0.45;0.30;;;35.80;66.20;;;;;;4135815;28;20073;-87
2022/07/16 11:52:31;;;;;;;1.63;0.30;;;36.30;67.00;;;;;;4148898;28;20057;-87
2022/07/16 11:54:56;;;;;;;0.73;0.40;;;36.60;69.00;;;;;;4135593;28;20125;-87
2022/07/16 11:57:18;;;;;;;0.57;0.30;;;36.20;71.20;;;;;;4140712;28;20060;-86
2022/07/16 11:59:47;;;;;;;0.30;0.30;;;37.00;70.40;;;;;;4145751;28;20053;-86
2022/07/16 12:02:12;;;;;;;8.30;0.30;;;36.80;70.40;;;;;;4161725;28;20751;-87
2022/07/16 12:04:44;;;;;;;0.30;0.30;;;36.40;70.30;;;;;;4162015;28;20129;-86
2022/07/16 12:07:09;;;;;;;0.30;0.30;;;36.90;66.90;;;;;;4162010;28;20044;-87
2022/07/16 12:09:45;;;;;;;0.30;0.30;;;36.30;68.30;;;;;;4147490;28;20103;-88
2022/07/16 12:12:14;;;;;;;1.73;0.25;;;36.00;70.80;;;;;;4150272;28;20112;-87
2022/07/16 12:14:55;;;;;;;1.10;0.30;;;36.20;68.30;;;;;;4152807;28;20564;-87
2022/07/16 12:17:39;;;;;;;1.95;0.30;;;35.10;67.50;;;;;;4155524;28;20052;-87
2022/07/16 12:20:03;;;;;;;0.30;0.30;;;35.70;66.90;;;;;;4157722;28;20080;-88
2022/07/16 12:22:52;;;;;;;0.60;0.30;;;36.60;67.10;;;;;;4159283;28;20049;-86
2022/07/16 12:25:22;;;;;;;0.63;0.30;;;36.90;66.20;;;;;;4147363;28;20564;-87
2022/07/16 12:27:51;;;;;;;0.30;0.30;;;37.00;64.80;;;;;;4161533;28;20137;-87
2022/07/16 12:30:11;;;;;;;0.30;0.30;;;37.60;64.00;;;;;;4145591;28;20063;-87
2022/07/16 12:32:46;;;;;;;0.30;0.30;;;37.20;63.40;;;;;;4153070;28;20125;-87